createdAt,value
2023-05-05T00:01:01.991Z,97523.78
2023-05-05T00:03:32.146Z,97516.31
2023-05-05T00:05:59.946Z,97520.47
2023-05-05T00:08:27.934Z,97511.28
2023-05-05T00:10:56.129Z,97515.44
2023-05-05T00:13:25.433Z,97512.38
2023-05-05T00:15:54.030Z,97515.69
2023-05-05T00:18:21.721Z,97521.09
2023-05-05T00:20:49.570Z,97518.41
2023-05-05T00:23:18.835Z,97518.00
2023-05-05T00:25:46.643Z,97522.00
2023-05-05T00:28:14.415Z,97524.53
2023-05-05T00:30:43.771Z,97524.00
2023-05-05T00:33:11.406Z,97522.16
2023-05-05T00:35:39.215Z,97518.69
2023-05-05T00:38:07.010Z,97515.56
2023-05-05T00:40:34.832Z,97519.16
2023-05-05T00:43:02.610Z,97512.56
2023-05-05T00:45:30.770Z,97514.28
2023-05-05T00:48:01.230Z,97513.41
2023-05-05T00:50:30.424Z,97512.16
2023-05-05T00:53:01.529Z,97508.81
2023-05-05T00:55:29.935Z,97516.59
2023-05-05T00:57:58.410Z,97515.59
2023-05-05T01:00:27.433Z,97511.06
2023-05-05T01:02:55.527Z,97513.34
2023-05-05T01:05:27.710Z,97514.38
2023-05-05T01:08:16.120Z,97503.63
2023-05-05T01:10:52.719Z,97505.50
2023-05-05T01:13:32.090Z,97505.97
2023-05-05T01:16:07.064Z,97507.69
2023-05-05T01:18:44.897Z,97501.41
2023-05-05T01:21:22.455Z,97502.91
2023-05-05T01:24:21.844Z,97503.34
2023-05-05T01:27:05.516Z,97504.03
2023-05-05T01:29:57.688Z,97498.50
2023-05-05T01:32:29.804Z,97491.59
2023-05-05T01:35:02.005Z,97492.44
2023-05-05T01:37:45.903Z,97499.56
2023-05-05T01:40:18.092Z,97506.84
2023-05-05T01:42:48.292Z,97497.16
2023-05-05T01:45:19.973Z,97504.28
2023-05-05T01:47:49.148Z,97502.28
2023-05-05T01:50:19.356Z,97500.34
2023-05-05T01:52:48.436Z,97500.59
2023-05-05T01:55:19.499Z,97503.28
2023-05-05T01:57:49.960Z,97507.22
2023-05-05T02:00:19.417Z,97501.16
2023-05-05T02:02:50.552Z,97497.41
2023-05-05T02:05:19.916Z,97503.25
2023-05-05T02:07:50.083Z,97512.75
2023-05-05T02:10:18.366Z,97510.13
2023-05-05T02:12:48.553Z,97514.22
2023-05-05T02:15:18.023Z,97514.78
2023-05-05T02:17:47.628Z,97513.22
2023-05-05T02:20:20.600Z,97503.84
2023-05-05T02:22:49.016Z,97507.66
2023-05-05T02:25:18.215Z,97510.38
2023-05-05T02:27:49.221Z,97508.75
2023-05-05T02:30:20.263Z,97506.94
2023-05-05T02:32:53.721Z,97509.53
2023-05-05T02:35:29.298Z,97507.47
2023-05-05T02:38:01.602Z,97509.88
2023-05-05T02:40:33.916Z,97492.47
2023-05-05T02:43:07.782Z,97501.63
2023-05-05T02:45:35.784Z,97514.28
2023-05-05T02:48:04.826Z,97513.09
2023-05-05T02:50:34.121Z,97513.16
2023-05-05T02:53:02.365Z,97506.63
2023-05-05T02:55:39.094Z,97512.16
2023-05-05T02:58:13.987Z,97501.34
2023-05-05T03:00:50.409Z,97508.63
2023-05-05T03:03:25.875Z,97503.78
2023-05-05T03:06:05.120Z,97509.81
2023-05-05T03:08:42.640Z,97498.66
2023-05-05T03:11:19.235Z,97495.81
2023-05-05T03:13:55.191Z,97492.44
2023-05-05T03:16:26.205Z,97482.25
2023-05-05T03:18:55.220Z,97486.22
2023-05-05T03:21:24.894Z,97489.72
2023-05-05T03:23:52.605Z,97492.59
2023-05-05T03:26:20.260Z,97495.41
2023-05-05T03:28:49.252Z,97493.00
2023-05-05T03:31:18.646Z,97487.16
2023-05-05T03:33:46.353Z,97496.53
2023-05-05T03:36:15.221Z,97500.75
2023-05-05T03:38:44.184Z,97496.59
2023-05-05T03:41:12.367Z,97491.69
2023-05-05T03:43:40.015Z,97506.28
2023-05-05T03:46:07.708Z,97505.69
2023-05-05T03:48:35.521Z,97503.44
2023-05-05T03:51:03.417Z,97506.94
2023-05-05T03:53:31.283Z,97510.41
2023-05-05T03:56:01.002Z,97510.78
2023-05-05T03:58:28.870Z,97511.16
2023-05-05T04:00:56.783Z,97508.88
2023-05-05T04:03:24.769Z,97509.97
2023-05-05T04:05:52.621Z,97507.41
2023-05-05T04:08:20.263Z,97515.81
2023-05-05T04:10:48.454Z,97501.16
2023-05-05T04:13:17.537Z,97499.50
2023-05-05T04:15:45.882Z,97494.22
2023-05-05T04:18:14.024Z,97494.31
2023-05-05T04:20:42.436Z,97497.09
2023-05-05T04:23:10.015Z,97495.88
2023-05-05T04:25:37.654Z,97504.34
2023-05-05T04:28:05.496Z,97496.22
2023-05-05T04:30:41.824Z,97500.41
2023-05-05T04:33:09.950Z,97493.09
2023-05-05T04:35:37.601Z,97493.47
2023-05-05T04:38:05.221Z,97490.41
2023-05-05T04:40:33.044Z,97489.53
2023-05-05T04:43:00.648Z,97481.28
2023-05-05T04:45:30.590Z,97481.25
2023-05-05T04:47:59.736Z,97480.13
2023-05-05T04:50:27.682Z,97481.66
2023-05-05T04:52:55.340Z,97473.59
2023-05-05T04:55:23.036Z,97478.16
2023-05-05T04:57:50.623Z,97483.06
2023-05-05T05:00:18.532Z,97479.81
2023-05-05T05:02:46.122Z,97480.16
2023-05-05T05:05:15.302Z,97493.47
2023-05-05T05:07:42.826Z,97494.72
2023-05-05T05:10:10.925Z,97502.25
2023-05-05T05:12:38.999Z,97491.28
2023-05-05T05:15:08.638Z,97484.16
2023-05-05T05:17:36.266Z,97488.28
2023-05-05T05:20:04.301Z,97491.50
2023-05-05T05:22:33.403Z,97483.00
2023-05-05T05:25:00.961Z,97486.38
2023-05-05T05:27:28.644Z,97482.66
2023-05-05T05:29:56.422Z,97489.41
2023-05-05T05:32:24.120Z,97487.06
2023-05-05T05:34:51.856Z,97487.06
2023-05-05T05:37:19.549Z,97497.13
2023-05-05T05:39:52.525Z,97503.97
2023-05-05T05:42:20.438Z,97502.91
2023-05-05T05:44:48.147Z,97514.34
2023-05-05T05:47:15.760Z,97518.56
2023-05-05T05:49:43.444Z,97520.00
2023-05-05T05:52:11.014Z,97528.84
2023-05-05T05:54:38.557Z,97528.09
2023-05-05T05:57:07.753Z,97526.06
2023-05-05T05:59:35.607Z,97532.50
2023-05-05T06:02:03.322Z,97528.88
2023-05-05T06:04:31.315Z,97523.06
2023-05-05T06:06:59.202Z,97531.28
2023-05-05T06:09:29.254Z,97520.09
2023-05-05T06:11:56.818Z,97520.47
2023-05-05T06:14:28.450Z,97512.63
2023-05-05T06:16:56.093Z,97518.69
2023-05-05T06:19:24.685Z,97521.56
2023-05-05T06:21:52.614Z,97517.56
2023-05-05T06:24:20.388Z,97522.94
2023-05-05T06:26:48.098Z,97513.31
2023-05-05T06:29:15.826Z,97514.78
2023-05-05T06:31:45.066Z,97520.19
2023-05-05T06:34:12.717Z,97508.91
2023-05-05T06:36:40.426Z,97515.09
2023-05-05T06:39:08.232Z,97512.44
2023-05-05T06:41:36.000Z,97517.25
2023-05-05T06:44:03.814Z,97513.09
2023-05-05T06:46:31.631Z,97509.81
2023-05-05T06:49:00.641Z,97508.34
2023-05-05T06:51:28.534Z,97510.34
2023-05-05T06:53:56.205Z,97511.53
2023-05-05T06:56:23.901Z,97507.66
2023-05-05T06:58:51.760Z,97521.00
2023-05-05T07:01:19.519Z,97511.22
2023-05-05T07:03:47.350Z,97518.78
2023-05-05T07:06:16.397Z,97514.94
2023-05-05T07:08:44.081Z,97507.72
2023-05-05T07:11:11.620Z,97507.00
2023-05-05T07:13:39.167Z,97500.22
2023-05-05T07:16:06.991Z,97497.50
2023-05-05T07:18:35.632Z,97497.44
2023-05-05T07:21:03.690Z,97498.38
2023-05-05T07:23:32.734Z,97496.34
2023-05-05T07:26:00.766Z,97495.34
2023-05-05T07:28:28.451Z,97492.31
2023-05-05T07:30:56.219Z,97488.34
2023-05-05T07:33:23.998Z,97493.13
2023-05-05T07:35:51.640Z,97485.06
2023-05-05T07:38:19.461Z,97483.09
2023-05-05T07:40:48.435Z,97483.03
2023-05-05T07:43:16.210Z,97482.66
2023-05-05T07:45:43.779Z,97485.16
2023-05-05T07:48:11.758Z,97481.84
2023-05-05T07:50:39.711Z,97483.09
2023-05-05T07:53:14.340Z,97481.28
2023-05-05T07:55:42.731Z,97480.28
2023-05-05T07:58:11.774Z,97474.81
2023-05-05T08:00:39.813Z,97478.97
2023-05-05T08:03:10.695Z,97471.81
2023-05-05T08:05:39.934Z,97483.28
2023-05-05T08:08:08.077Z,97476.75
2023-05-05T08:10:37.329Z,97477.25
2023-05-05T08:13:06.494Z,97474.72
2023-05-05T08:15:35.584Z,97467.84
2023-05-05T08:18:03.410Z,97472.00
2023-05-05T08:20:31.402Z,97465.56
2023-05-05T08:22:59.052Z,97469.69
2023-05-05T08:25:30.032Z,97471.00
2023-05-05T08:27:57.713Z,97471.19
2023-05-05T08:30:25.378Z,97475.78
2023-05-05T08:32:54.791Z,97467.13
2023-05-05T08:35:22.888Z,97469.78
2023-05-05T08:37:50.927Z,97473.19
2023-05-05T08:40:20.113Z,97463.56
2023-05-05T08:42:48.437Z,97472.34
2023-05-05T08:45:16.521Z,97471.47
2023-05-05T08:47:44.451Z,97464.22
2023-05-05T08:50:16.433Z,97460.28
2023-05-05T08:52:53.798Z,97464.03
2023-05-05T08:55:23.809Z,97459.75
2023-05-05T08:57:55.093Z,97461.28
2023-05-05T09:00:24.024Z,97457.72
2023-05-05T09:02:56.156Z,97452.63
2023-05-05T09:05:26.401Z,97446.53
2023-05-05T09:07:54.118Z,97441.94
2023-05-05T09:10:22.186Z,97448.88
2023-05-05T09:12:49.912Z,97443.91
2023-05-05T09:15:17.610Z,97443.53
2023-05-05T09:17:45.577Z,97444.94
2023-05-05T09:20:14.284Z,97441.66
2023-05-05T09:22:45.899Z,97436.34
2023-05-05T09:25:15.441Z,97440.63
2023-05-05T09:27:45.502Z,97440.28
2023-05-05T09:30:16.028Z,97445.13
2023-05-05T09:32:48.119Z,97446.09
2023-05-05T09:35:16.810Z,97446.00
2023-05-05T09:37:45.935Z,97434.00
2023-05-05T09:40:15.473Z,97441.94
2023-05-05T09:42:43.863Z,97439.50
2023-05-05T09:45:25.996Z,97434.91
2023-05-05T09:47:59.047Z,97435.28
2023-05-05T09:50:28.688Z,97419.06
2023-05-05T09:52:59.576Z,97427.44
2023-05-05T09:55:27.347Z,97421.72
2023-05-05T09:57:55.118Z,97413.13
2023-05-05T10:00:38.243Z,97413.63
2023-05-05T10:03:05.984Z,97411.72
2023-05-05T10:05:45.788Z,97407.66
2023-05-05T10:08:17.491Z,97405.50
2023-05-05T10:10:51.856Z,97409.44
2023-05-05T10:13:21.583Z,97402.09
2023-05-05T10:15:50.871Z,97400.59
2023-05-05T10:18:21.475Z,97391.81
2023-05-05T10:20:55.261Z,97395.56
2023-05-05T10:23:31.686Z,97403.75
2023-05-05T10:26:02.140Z,97396.72
2023-05-05T10:28:33.654Z,97394.31
2023-05-05T10:31:04.243Z,97396.59
2023-05-05T10:33:47.634Z,97396.69
2023-05-05T10:36:16.586Z,97395.19
2023-05-05T10:38:46.612Z,97392.59
2023-05-05T10:41:16.370Z,97399.09
2023-05-05T10:43:45.625Z,97392.94
2023-05-05T10:46:14.154Z,97389.22
2023-05-05T10:48:50.840Z,97395.97
2023-05-05T10:51:39.250Z,97389.50
2023-05-05T10:54:22.993Z,97389.34
2023-05-05T10:56:52.300Z,97380.88
2023-05-05T10:59:44.787Z,97385.50
2023-05-05T11:02:22.885Z,97382.97
2023-05-05T11:05:08.032Z,97379.81
2023-05-05T11:07:36.251Z,97383.09
2023-05-05T11:10:07.950Z,97374.75
2023-05-05T11:13:09.458Z,97368.47
2023-05-05T11:15:38.014Z,97367.13
2023-05-05T11:18:07.888Z,97366.22
2023-05-05T11:21:13.629Z,97365.06
2023-05-05T11:23:42.625Z,97368.31
2023-05-05T11:26:13.335Z,97357.28
2023-05-05T11:29:00.018Z,97355.13
2023-05-05T11:31:28.456Z,97348.03
2023-05-05T11:34:26.136Z,97349.69
2023-05-05T11:36:57.669Z,97342.44
2023-05-05T11:39:41.160Z,97348.59
2023-05-05T11:42:24.400Z,97342.13
2023-05-05T11:44:52.608Z,97338.69
2023-05-05T11:47:32.915Z,97341.25
2023-05-05T11:50:17.750Z,97336.22
2023-05-05T11:52:45.705Z,97331.34
2023-05-05T11:55:19.657Z,97335.59
2023-05-05T11:57:48.685Z,97335.75
2023-05-05T12:00:18.661Z,97339.91
2023-05-05T12:02:46.663Z,97335.78
2023-05-05T12:05:20.223Z,97337.34
2023-05-05T12:07:48.136Z,97326.34
2023-05-05T12:10:22.724Z,97319.06
2023-05-05T12:12:55.083Z,97320.97
2023-05-05T12:15:31.011Z,97313.38
2023-05-05T12:18:01.478Z,97308.28
2023-05-05T12:20:32.452Z,97317.38
2023-05-05T12:23:01.939Z,97314.19
2023-05-05T12:25:37.400Z,97313.09
2023-05-05T12:28:07.912Z,97306.66
2023-05-05T12:30:36.317Z,97313.00
2023-05-05T12:33:06.705Z,97314.00
2023-05-05T12:35:35.461Z,97315.59
2023-05-05T12:38:04.391Z,97303.47
2023-05-05T12:40:46.238Z,97313.06
2023-05-05T12:43:29.172Z,97307.25
2023-05-05T12:46:05.481Z,97308.38
2023-05-05T12:48:36.356Z,97312.59
2023-05-05T12:51:14.133Z,97308.84
2023-05-05T12:53:42.336Z,97308.31
2023-05-05T12:56:31.365Z,97300.16
2023-05-05T12:59:01.022Z,97303.34
2023-05-05T13:01:29.134Z,97293.75
2023-05-05T13:04:11.065Z,97283.81
2023-05-05T13:06:39.794Z,97273.59
2023-05-05T13:09:07.523Z,97264.91
2023-05-05T13:11:35.811Z,97255.72
2023-05-05T13:14:06.684Z,97257.19
2023-05-05T13:16:34.318Z,97257.94
2023-05-05T13:19:02.051Z,97254.91
2023-05-05T13:21:30.110Z,97254.22
2023-05-05T13:24:05.056Z,97236.44
2023-05-05T13:26:39.894Z,97243.47
2023-05-05T13:29:09.983Z,97238.50
2023-05-05T13:31:37.701Z,97241.50
2023-05-05T13:34:07.569Z,97231.75
2023-05-05T13:36:35.184Z,97233.06
2023-05-05T13:39:03.216Z,97231.00
2023-05-05T13:41:30.825Z,97226.88
2023-05-05T13:43:58.498Z,97222.25
2023-05-05T13:46:27.824Z,97224.06
2023-05-05T13:48:56.894Z,97217.88
2023-05-05T13:51:24.722Z,97220.53
2023-05-05T13:53:54.630Z,97210.44
2023-05-05T13:56:22.180Z,97200.88
2023-05-05T13:58:51.293Z,97199.25
2023-05-05T14:01:18.948Z,97196.34
2023-05-05T14:03:48.099Z,97197.50
2023-05-05T14:06:15.786Z,97197.09
2023-05-05T14:08:43.532Z,97203.78
2023-05-05T14:11:11.193Z,97206.88
2023-05-05T14:13:39.135Z,97206.91
2023-05-05T14:16:06.954Z,97206.78
2023-05-05T14:18:34.816Z,97203.50
2023-05-05T14:21:03.996Z,97199.72
2023-05-05T14:23:31.695Z,97194.28
2023-05-05T14:26:00.573Z,97196.16
2023-05-05T14:28:29.211Z,97192.13
2023-05-05T14:30:59.204Z,97180.78
2023-05-05T14:33:26.762Z,97183.19
2023-05-05T14:35:55.353Z,97176.06
2023-05-05T14:38:24.451Z,97186.28
2023-05-05T14:40:52.294Z,97190.66
2023-05-05T14:43:20.055Z,97185.41
2023-05-05T14:45:47.724Z,97191.72
2023-05-05T14:48:15.364Z,97201.19
2023-05-05T14:50:45.250Z,97189.03
2023-05-05T14:53:15.189Z,97197.94
2023-05-05T14:55:46.258Z,97196.66
2023-05-05T14:58:13.883Z,97194.78
2023-05-05T15:00:41.728Z,97188.66
2023-05-05T15:03:09.369Z,97186.66
2023-05-05T15:05:37.293Z,97183.16
2023-05-05T15:08:05.373Z,97194.09
2023-05-05T15:10:36.191Z,97203.03
2023-05-05T15:13:05.331Z,97203.03
2023-05-05T15:15:32.932Z,97203.94
2023-05-05T15:18:00.558Z,97205.13
2023-05-05T15:20:29.654Z,97199.81
2023-05-05T15:22:57.677Z,97197.22
2023-05-05T15:25:25.407Z,97197.50
2023-05-05T15:27:53.033Z,97203.84
2023-05-05T15:30:22.215Z,97196.97
2023-05-05T15:32:49.853Z,97204.44
2023-05-05T15:35:17.577Z,97201.41
2023-05-05T15:37:45.438Z,97199.75
2023-05-05T15:40:14.300Z,97197.44
2023-05-05T15:42:42.240Z,97197.88
2023-05-05T15:45:10.491Z,97195.69
2023-05-05T15:47:39.666Z,97191.94
2023-05-05T15:50:08.402Z,97195.81
2023-05-05T15:52:36.102Z,97199.94
2023-05-05T15:55:04.236Z,97208.41
2023-05-05T15:57:33.034Z,97221.63
2023-05-05T16:00:00.846Z,97212.97
2023-05-05T16:02:28.573Z,97213.31
2023-05-05T16:04:57.757Z,97210.81
2023-05-05T16:07:25.626Z,97211.44
2023-05-05T16:09:53.533Z,97201.78
2023-05-05T16:12:21.277Z,97207.41
2023-05-05T16:14:48.877Z,97207.69
2023-05-05T16:17:17.546Z,97206.44
2023-05-05T16:19:45.088Z,97205.94
2023-05-05T16:22:14.390Z,97208.47
2023-05-05T16:24:44.384Z,97215.59
2023-05-05T16:27:11.989Z,97209.19
2023-05-05T16:29:41.130Z,97212.88
2023-05-05T16:32:09.876Z,97206.13
2023-05-05T16:34:37.500Z,97208.50
2023-05-05T16:37:05.111Z,97208.88
2023-05-05T16:39:37.140Z,97215.69
2023-05-05T16:42:06.024Z,97210.13
2023-05-05T16:44:33.961Z,97216.41
2023-05-05T16:47:01.769Z,97206.75
2023-05-05T16:49:29.542Z,97218.78
2023-05-05T16:51:57.482Z,97222.25
2023-05-05T16:54:25.294Z,97214.97
2023-05-05T16:56:56.493Z,97207.38
2023-05-05T16:59:24.257Z,97209.84
2023-05-05T17:01:52.006Z,97201.56
2023-05-05T17:04:19.635Z,97198.53
2023-05-05T17:06:47.134Z,97201.78
2023-05-05T17:09:14.786Z,97207.03
2023-05-05T17:11:42.416Z,97204.78
2023-05-05T17:14:11.474Z,97213.84
2023-05-05T17:16:40.245Z,97210.31
2023-05-05T17:19:07.881Z,97204.97
2023-05-05T17:21:35.544Z,97203.19
2023-05-05T17:24:03.610Z,97213.31
2023-05-05T17:26:32.939Z,97210.53
2023-05-05T17:29:02.063Z,97211.59
2023-05-05T17:31:31.056Z,97219.72
2023-05-05T17:33:58.924Z,97211.03
2023-05-05T17:36:26.564Z,97225.19
2023-05-05T17:38:54.210Z,97222.41
2023-05-05T17:41:21.901Z,97225.59
2023-05-05T17:43:49.422Z,97233.00
2023-05-05T17:46:17.286Z,97233.00
2023-05-05T17:48:46.281Z,97239.38
2023-05-05T17:51:14.241Z,97237.13
2023-05-05T17:53:41.907Z,97244.06
2023-05-05T17:56:09.567Z,97245.28
2023-05-05T17:58:37.446Z,97254.22
2023-05-05T18:01:05.047Z,97247.56
2023-05-05T18:03:32.893Z,97252.53
2023-05-05T18:06:02.410Z,97254.50
2023-05-05T18:08:30.206Z,97260.97
2023-05-05T18:10:58.419Z,97260.41
2023-05-05T18:13:26.182Z,97264.22
2023-05-05T18:15:53.939Z,97269.16
2023-05-05T18:18:21.530Z,97269.31
2023-05-05T18:20:49.214Z,97274.63
2023-05-05T18:23:21.899Z,97282.03
2023-05-05T18:25:49.503Z,97288.56
2023-05-05T18:28:17.321Z,97283.97
2023-05-05T18:30:44.887Z,97285.19
2023-05-05T18:33:12.462Z,97284.53
2023-05-05T18:35:40.098Z,97282.69
2023-05-05T18:38:07.681Z,97285.22
2023-05-05T18:40:36.771Z,97281.31
2023-05-05T18:43:04.360Z,97286.88
2023-05-05T18:45:31.890Z,97286.88
2023-05-05T18:47:59.687Z,97280.13
2023-05-05T18:50:27.501Z,97282.72
2023-05-05T18:52:55.156Z,97293.59
2023-05-05T18:55:23.213Z,97289.41
2023-05-05T18:57:52.077Z,97288.50
2023-05-05T19:00:20.259Z,97287.09
2023-05-05T19:02:47.822Z,97291.72
2023-05-05T19:05:15.477Z,97292.75
2023-05-05T19:07:43.490Z,97294.34
2023-05-05T19:10:11.467Z,97299.63
2023-05-05T19:12:39.183Z,97297.31
2023-05-05T19:15:09.097Z,97298.78
2023-05-05T19:17:36.965Z,97305.09
2023-05-05T19:20:05.550Z,97303.94
2023-05-05T19:22:33.124Z,97312.09
2023-05-05T19:25:00.672Z,97309.56
2023-05-05T19:27:28.226Z,97315.03
2023-05-05T19:29:55.932Z,97320.97
2023-05-05T19:32:24.971Z,97322.13
2023-05-05T19:34:52.619Z,97324.59
2023-05-05T19:37:21.503Z,97314.09
2023-05-05T19:39:49.761Z,97322.50
2023-05-05T19:42:18.060Z,97333.84
2023-05-05T19:44:45.811Z,97333.06
2023-05-05T19:47:13.374Z,97334.53
2023-05-05T19:49:42.427Z,97333.28
2023-05-05T19:52:10.078Z,97321.50
2023-05-05T19:54:39.395Z,97325.28
2023-05-05T19:57:07.132Z,97328.28
2023-05-05T19:59:35.904Z,97326.31
2023-05-05T20:02:03.468Z,97326.25
2023-05-05T20:04:31.054Z,97326.69
2023-05-05T20:07:00.006Z,97329.22
2023-05-05T20:09:27.712Z,97326.50
2023-05-05T20:11:58.869Z,97326.63
2023-05-05T20:14:27.933Z,97324.78
2023-05-05T20:16:55.691Z,97324.03
2023-05-05T20:19:23.290Z,97323.47
2023-05-05T20:21:51.047Z,97323.59
2023-05-05T20:24:20.144Z,97327.47
2023-05-05T20:26:47.703Z,97327.59
2023-05-05T20:29:15.428Z,97327.41
2023-05-05T20:31:42.987Z,97333.19
2023-05-05T20:34:10.688Z,97331.19
2023-05-05T20:36:38.298Z,97326.44
2023-05-05T20:39:06.596Z,97329.22
2023-05-05T20:41:35.522Z,97330.16
2023-05-05T20:44:03.066Z,97327.97
2023-05-05T20:46:30.724Z,97330.00
2023-05-05T20:48:58.436Z,97334.81
2023-05-05T20:51:26.165Z,97342.09
2023-05-05T20:53:53.783Z,97347.19
2023-05-05T20:56:21.737Z,97344.25
2023-05-05T20:58:50.960Z,97354.25
2023-05-05T21:01:18.637Z,97343.03
2023-05-05T21:03:46.179Z,97349.78
2023-05-05T21:06:13.817Z,97354.31
2023-05-05T21:08:41.350Z,97342.88
2023-05-05T21:11:12.962Z,97344.38
2023-05-05T21:13:40.577Z,97340.38
2023-05-05T21:16:09.572Z,97340.03
2023-05-05T21:18:37.110Z,97335.56
2023-05-05T21:21:04.660Z,97344.53
2023-05-05T21:23:32.331Z,97344.00
2023-05-05T21:26:00.024Z,97330.69
2023-05-05T21:28:27.848Z,97330.06
2023-05-05T21:31:19.940Z,97330.41
2023-05-05T21:33:44.455Z,97331.63
2023-05-05T21:36:12.983Z,97338.56
2023-05-05T21:38:40.650Z,97345.22
2023-05-05T21:41:10.020Z,97345.41
2023-05-05T21:43:37.832Z,97347.38
2023-05-05T21:46:06.194Z,97342.38
2023-05-05T21:48:33.852Z,97344.50
2023-05-05T21:51:10.322Z,97346.59
2023-05-05T21:53:37.888Z,97355.69
2023-05-05T21:56:06.960Z,97358.19
2023-05-05T21:58:34.578Z,97352.28
2023-05-05T22:01:02.265Z,97348.84
2023-05-05T22:03:30.150Z,97342.78
2023-05-05T22:05:59.045Z,97336.56
2023-05-05T22:08:28.142Z,97332.09
2023-05-05T22:10:55.760Z,97317.81
2023-05-05T22:13:23.553Z,97316.44
2023-05-05T22:15:51.300Z,97311.66
2023-05-05T22:18:19.002Z,97309.34
2023-05-05T22:20:46.794Z,97312.75
2023-05-05T22:23:15.202Z,97313.19
2023-05-05T22:25:45.256Z,97305.38
2023-05-05T22:28:12.869Z,97311.56
2023-05-05T22:30:41.082Z,97310.59
2023-05-05T22:33:09.283Z,97308.56
2023-05-05T22:35:37.201Z,97319.06
2023-05-05T22:38:05.176Z,97320.09
2023-05-05T22:40:32.946Z,97322.66
2023-05-05T22:43:01.940Z,97317.91
2023-05-05T22:45:29.919Z,97316.47
2023-05-05T22:47:57.575Z,97320.22
2023-05-05T22:50:25.477Z,97323.03
2023-05-05T22:52:55.368Z,97320.13
2023-05-05T22:55:23.092Z,97317.91
2023-05-05T22:57:50.744Z,97317.66
2023-05-05T23:00:20.053Z,97322.06
2023-05-05T23:02:47.647Z,97316.97
2023-05-05T23:05:15.176Z,97323.75
2023-05-05T23:07:42.798Z,97328.72
2023-05-05T23:10:11.039Z,97327.00
2023-05-05T23:12:38.653Z,97320.59
2023-05-05T23:15:07.934Z,97324.22
2023-05-05T23:17:37.148Z,97323.63
2023-05-05T23:20:06.392Z,97321.84
2023-05-05T23:22:34.194Z,97323.66
2023-05-05T23:25:01.785Z,97333.25
2023-05-05T23:27:29.511Z,97342.38
2023-05-05T23:29:57.107Z,97356.53
2023-05-05T23:32:24.776Z,97358.03
2023-05-05T23:34:53.769Z,97359.53
2023-05-05T23:37:21.422Z,97357.94
2023-05-05T23:39:49.144Z,97360.56
2023-05-05T23:42:18.131Z,97358.03
2023-05-05T23:44:45.809Z,97344.69
2023-05-05T23:47:13.423Z,97342.34
2023-05-05T23:49:41.009Z,97340.66
2023-05-05T23:52:11.003Z,97331.72
2023-05-05T23:54:38.575Z,97329.22
2023-05-05T23:57:06.194Z,97325.19
2023-05-05T23:59:33.764Z,97328.81
